Time;durP1;ratioP1;P1;durP2;ratioP2;P2;SDS_P1;SDS_P2;PMS_P1;PMS_P2;Temp;Humidity;BMP_temperature;BMP_pressure;BME280_temperature;BME280_humidity;BME280_pressure;Samples;Min_cycle;Max_cycle;Signal;HPM_P1;HPM_P2
2021/08/17 00:01:08;;;;;;;18.23;5.05;;;13.20;99.90;;;;;;5087176;28;20624;-70
2021/08/17 00:03:34;;;;;;;21.95;4.30;;;13.20;99.90;;;;;;5085523;28;20048;-70
2021/08/17 00:06:01;;;;;;;19.52;4.47;;;13.30;99.90;;;;;;5087017;28;20572;-70
2021/08/17 00:08:28;;;;;;;23.25;4.65;;;13.20;99.90;;;;;;5086976;28;20040;-70
2021/08/17 00:10:53;;;;;;;17.92;4.32;;;13.30;99.90;;;;;;5087756;28;20044;-70
2021/08/17 00:13:20;;;;;;;16.77;4.18;;;13.20;99.90;;;;;;5087570;28;20051;-70
2021/08/17 00:15:47;;;;;;;20.63;5.30;;;13.20;99.90;;;;;;5087628;28;20049;-70
2021/08/17 00:18:14;;;;;;;18.05;4.43;;;13.10;99.90;;;;;;5074629;28;20055;-70
2021/08/17 00:20:40;;;;;;;23.30;5.88;;;13.20;99.90;;;;;;5086758;28;20448;-71
2021/08/17 00:23:07;;;;;;;24.73;5.18;;;13.20;99.90;;;;;;5085718;28;20048;-70
2021/08/17 00:25:34;;;;;;;17.77;4.38;;;13.10;99.90;;;;;;5086507;28;20040;-70
2021/08/17 00:28:01;;;;;;;19.33;4.57;;;13.10;99.90;;;;;;5086842;28;20045;-70
2021/08/17 00:30:27;;;;;;;17.83;4.40;;;13.10;99.90;;;;;;5086470;28;20070;-70
2021/08/17 00:32:54;;;;;;;15.77;3.85;;;13.10;99.90;;;;;;5086818;28;20044;-70
2021/08/17 00:35:23;;;;;;;18.42;3.63;;;13.10;99.90;;;;;;5086475;28;20057;-70
2021/08/17 00:37:49;;;;;;;12.47;3.87;;;13.00;99.90;;;;;;5085463;28;20159;-70
2021/08/17 00:40:15;;;;;;;13.68;3.95;;;13.00;99.90;;;;;;5085169;28;20048;-70
2021/08/17 00:42:45;;;;;;;18.27;4.53;;;13.00;99.90;;;;;;5086386;28;20049;-70
2021/08/17 00:45:17;;;;;;;16.80;4.20;;;13.00;99.90;;;;;;5086256;28;20037;-70
2021/08/17 00:47:43;;;;;;;16.05;3.20;;;13.00;99.90;;;;;;5087365;28;20098;-69
2021/08/17 00:50:09;;;;;;;13.23;3.72;;;12.90;99.90;;;;;;5085809;28;20045;-70
2021/08/17 00:52:35;;;;;;;18.40;3.78;;;13.00;99.90;;;;;;5086835;28;20109;-70
2021/08/17 00:55:02;;;;;;;11.88;2.97;;;13.00;99.90;;;;;;5085727;28;20044;-70
2021/08/17 00:57:28;;;;;;;16.20;4.43;;;13.00;99.90;;;;;;5085878;28;20040;-70
2021/08/17 00:59:54;;;;;;;14.88;3.47;;;13.00;99.90;;;;;;5086371;28;20044;-70
2021/08/17 01:02:20;;;;;;;13.95;4.35;;;12.90;99.90;;;;;;5086861;28;20052;-70
2021/08/17 01:04:45;;;;;;;12.38;3.58;;;12.90;99.90;;;;;;5085686;28;20033;-70
2021/08/17 01:07:11;;;;;;;12.77;3.83;;;12.80;99.90;;;;;;5086330;28;20091;-70
2021/08/17 01:09:38;;;;;;;16.63;3.58;;;12.80;99.90;;;;;;5084653;28;20047;-70
2021/08/17 01:12:05;;;;;;;12.40;3.30;;;12.80;99.90;;;;;;5086277;28;20117;-70
2021/08/17 01:14:31;;;;;;;9.43;3.33;;;12.80;99.90;;;;;;5086121;28;20040;-70
2021/08/17 01:16:58;;;;;;;14.55;3.20;;;12.80;99.90;;;;;;5085908;28;20051;-70
2021/08/17 01:19:24;;;;;;;11.27;3.25;;;12.80;99.90;;;;;;5085236;28;20040;-70
2021/08/17 01:21:50;;;;;;;18.80;3.13;;;12.70;99.90;;;;;;5084319;28;20051;-70
2021/08/17 01:24:17;;;;;;;14.57;3.33;;;12.70;99.90;;;;;;5085933;28;20052;-70
2021/08/17 01:26:44;;;;;;;12.52;3.80;;;12.60;99.90;;;;;;5086145;28;20044;-70
2021/08/17 01:29:11;;;;;;;10.10;3.30;;;12.60;99.90;;;;;;5085929;28;20045;-70
2021/08/17 01:31:38;;;;;;;15.50;3.80;;;12.60;99.90;;;;;;5086119;28;20045;-70
2021/08/17 01:34:04;;;;;;;9.65;2.80;;;12.60;99.90;;;;;;5085326;28;20103;-70
2021/08/17 01:36:30;;;;;;;17.10;3.53;;;12.50;99.90;;;;;;5084960;28;20049;-70
2021/08/17 01:38:56;;;;;;;14.07;3.00;;;12.50;99.90;;;;;;5072852;28;20052;-70
2021/08/17 01:41:22;;;;;;;11.57;3.40;;;12.50;99.90;;;;;;5085243;28;20051;-70
2021/08/17 01:43:48;;;;;;;12.57;3.63;;;12.50;99.90;;;;;;5071756;28;20051;-70
2021/08/17 01:46:14;;;;;;;12.02;3.03;;;12.50;99.90;;;;;;5084756;28;20067;-70
2021/08/17 01:48:40;;;;;;;10.63;3.25;;;12.50;99.90;;;;;;5084385;28;20399;-70
2021/08/17 01:51:07;;;;;;;12.05;3.25;;;12.50;99.90;;;;;;5084210;28;20058;-70
2021/08/17 01:53:33;;;;;;;14.18;4.00;;;12.50;99.90;;;;;;5075345;28;20041;-70
2021/08/17 01:56:06;;;;;;;10.25;3.28;;;12.50;99.90;;;;;;5085577;28;20044;-70
2021/08/17 01:58:32;;;;;;;12.15;3.33;;;12.40;99.90;;;;;;5085835;28;20048;-70
2021/08/17 02:00:58;;;;;;;8.30;3.10;;;12.30;99.90;;;;;;5084737;28;20041;-70
2021/08/17 02:03:24;;;;;;;10.43;3.63;;;12.30;99.90;;;;;;5085122;28;20055;-70
2021/08/17 02:05:50;;;;;;;11.10;2.53;;;12.30;99.90;;;;;;5071553;28;20065;-70
2021/08/17 02:08:16;;;;;;;13.18;3.10;;;12.30;99.90;;;;;;5080755;28;20048;-70
2021/08/17 02:10:41;;;;;;;11.23;3.20;;;12.30;99.90;;;;;;5076935;28;20403;-70
2021/08/17 02:13:08;;;;;;;10.45;3.38;;;12.40;99.90;;;;;;5084724;28;20416;-70
2021/08/17 02:15:34;;;;;;;12.48;3.00;;;12.40;99.90;;;;;;5084711;28;20048;-70
2021/08/17 02:18:00;;;;;;;9.27;3.35;;;12.40;99.90;;;;;;5084400;28;20508;-70
2021/08/17 02:20:26;;;;;;;11.82;3.00;;;12.50;99.90;;;;;;5085068;28;20055;-70
2021/08/17 02:22:52;;;;;;;14.43;3.45;;;12.50;99.90;;;;;;5085759;28;20067;-70
2021/08/17 02:25:18;;;;;;;13.48;2.50;;;12.50;99.90;;;;;;5083395;28;20144;-70
2021/08/17 02:27:44;;;;;;;11.00;2.58;;;12.50;99.90;;;;;;5085173;28;20442;-70
2021/08/17 02:30:10;;;;;;;13.32;3.20;;;12.60;99.90;;;;;;5084562;28;20041;-70
2021/08/17 02:32:36;;;;;;;11.63;3.97;;;12.60;99.90;;;;;;5084352;28;20518;-70
2021/08/17 02:35:03;;;;;;;11.45;3.30;;;12.60;99.90;;;;;;5077529;28;20045;-70
2021/08/17 02:37:29;;;;;;;10.38;2.85;;;12.60;99.90;;;;;;5079017;28;20045;-70
2021/08/17 02:39:55;;;;;;;13.88;3.45;;;12.70;99.90;;;;;;5084019;28;20492;-70
2021/08/17 02:42:21;;;;;;;12.27;3.35;;;12.70;99.90;;;;;;5084713;28;20059;-70
2021/08/17 02:44:47;;;;;;;9.55;3.42;;;12.80;99.90;;;;;;5084184;28;20101;-70
2021/08/17 02:47:13;;;;;;;13.93;3.80;;;12.80;99.90;;;;;;5083454;28;20078;-70
2021/08/17 02:49:39;;;;;;;13.85;3.40;;;12.80;99.90;;;;;;5081186;28;20496;-70
2021/08/17 02:52:06;;;;;;;12.70;3.30;;;12.70;99.90;;;;;;5073176;28;20044;-70
2021/08/17 02:54:37;;;;;;;13.38;2.83;;;12.70;99.90;;;;;;5081089;28;20044;-70
2021/08/17 02:57:03;;;;;;;12.38;3.53;;;12.60;99.90;;;;;;5084175;28;20044;-70
2021/08/17 02:59:30;;;;;;;11.25;2.83;;;12.60;99.90;;;;;;5084303;28;20104;-70
2021/08/17 03:01:56;;;;;;;13.55;3.92;;;12.60;99.90;;;;;;5088401;28;20044;-70
2021/08/17 03:04:21;;;;;;;10.82;3.15;;;12.60;99.90;;;;;;5088461;28;20082;-70
2021/08/17 03:06:47;;;;;;;11.50;2.83;;;12.60;99.90;;;;;;5087854;28;20053;-70
2021/08/17 03:09:13;;;;;;;11.38;3.20;;;12.60;99.90;;;;;;5088182;28;20036;-70
2021/08/17 03:11:39;;;;;;;11.25;3.10;;;12.60;99.90;;;;;;5088225;28;20044;-70
2021/08/17 03:14:05;;;;;;;9.23;2.60;;;12.60;99.90;;;;;;5088413;28;20040;-70
2021/08/17 03:16:31;;;;;;;10.77;2.50;;;12.60;99.90;;;;;;5088860;28;20044;-70
2021/08/17 03:18:57;;;;;;;7.70;2.28;;;12.60;99.90;;;;;;5088437;28;20044;-70
2021/08/17 03:21:24;;;;;;;12.48;3.08;;;12.60;99.90;;;;;;5087769;28;20050;-70
2021/08/17 03:23:50;;;;;;;13.77;3.15;;;12.60;99.90;;;;;;5087894;28;20123;-70
2021/08/17 03:26:16;;;;;;;12.45;2.35;;;12.70;99.90;;;;;;5077033;28;20055;-70
2021/08/17 03:28:42;;;;;;;13.55;2.58;;;12.70;99.90;;;;;;5082472;28;20408;-70
2021/08/17 03:31:08;;;;;;;10.23;2.42;;;12.70;99.90;;;;;;5087919;28;20047;-70
2021/08/17 03:33:35;;;;;;;8.52;1.85;;;12.60;99.90;;;;;;5087785;28;20049;-70
2021/08/17 03:36:04;;;;;;;10.95;2.65;;;12.60;99.90;;;;;;5087225;28;20404;-70
2021/08/17 03:38:32;;;;;;;13.52;2.58;;;12.50;99.90;;;;;;5087242;28;20488;-70
2021/08/17 03:40:58;;;;;;;11.10;2.75;;;12.60;99.90;;;;;;5074148;28;20055;-70
2021/08/17 03:43:25;;;;;;;11.93;2.75;;;12.60;99.90;;;;;;5087523;28;20053;-70
2021/08/17 03:45:56;;;;;;;9.85;2.20;;;12.50;99.90;;;;;;5087199;28;20059;-70
2021/08/17 03:48:21;;;;;;;;;;;12.50;99.90;;;;;;5086574;28;20051;-70
2021/08/17 03:50:47;;;;;;;10.27;2.63;;;12.50;99.90;;;;;;5087305;28;19928;-70
2021/08/17 03:53:13;;;;;;;13.75;3.28;;;12.50;99.90;;;;;;5087255;28;20052;-70
2021/08/17 03:55:39;;;;;;;9.02;2.30;;;12.50;99.90;;;;;;5087347;28;20100;-70
2021/08/17 03:58:06;;;;;;;11.52;2.42;;;12.50;99.90;;;;;;5087196;28;20048;-70
2021/08/17 04:00:33;;;;;;;10.90;2.40;;;12.50;99.90;;;;;;5088196;28;20040;-70
2021/08/17 04:02:59;;;;;;;9.40;2.17;;;12.50;99.90;;;;;;5087717;28;20045;-70
2021/08/17 04:05:26;;;;;;;7.85;2.63;;;12.40;99.90;;;;;;5073407;28;20056;-70
2021/08/17 04:07:52;;;;;;;10.23;2.22;;;12.50;99.90;;;;;;5087167;28;20093;-70
2021/08/17 04:10:19;;;;;;;7.70;1.90;;;12.40;99.90;;;;;;5073432;28;20048;-70
2021/08/17 04:12:45;;;;;;;12.70;3.15;;;12.40;99.90;;;;;;5087126;28;20041;-70
2021/08/17 04:15:11;;;;;;;7.50;2.15;;;12.40;99.90;;;;;;5087311;28;20071;-70
2021/08/17 04:17:38;;;;;;;10.40;1.90;;;12.40;99.90;;;;;;5086371;28;20047;-70
2021/08/17 04:20:05;;;;;;;8.50;1.90;;;12.40;99.90;;;;;;5087383;28;20567;-70
2021/08/17 04:22:32;;;;;;;7.05;2.10;;;12.30;99.90;;;;;;5087718;28;20037;-70
2021/08/17 04:24:58;;;;;;;9.70;2.50;;;12.30;99.90;;;;;;5087194;28;20055;-69
2021/08/17 04:27:24;;;;;;;11.32;2.75;;;12.30;99.90;;;;;;5086326;28;20049;-70
2021/08/17 04:29:50;;;;;;;12.05;2.15;;;12.40;99.90;;;;;;5086777;28;20048;-70
2021/08/17 04:32:16;;;;;;;12.48;1.98;;;12.40;99.90;;;;;;5087987;28;20076;-70
2021/08/17 04:34:42;;;;;;;7.47;2.03;;;12.40;99.90;;;;;;5087079;28;20041;-70
2021/08/17 04:37:08;;;;;;;13.07;2.33;;;12.40;99.90;;;;;;5084619;28;20041;-70
2021/08/17 04:39:35;;;;;;;10.15;2.17;;;12.30;99.90;;;;;;5052804;28;20152;-69
2021/08/17 04:42:02;;;;;;;8.05;2.22;;;12.30;99.90;;;;;;5078702;28;20475;-68
2021/08/17 04:44:28;;;;;;;10.32;2.50;;;12.40;99.90;;;;;;5064947;28;20045;-70
2021/08/17 04:46:54;;;;;;;9.90;2.45;;;12.40;99.90;;;;;;5064235;28;20041;-65
2021/08/17 04:49:20;;;;;;;12.55;2.75;;;12.40;99.90;;;;;;5066331;28;20120;-66
2021/08/17 04:51:45;;;;;;;7.85;2.10;;;12.50;99.90;;;;;;5085634;28;20071;-68
2021/08/17 04:54:11;;;;;;;11.90;2.25;;;12.50;99.90;;;;;;5075958;28;20069;-67
2021/08/17 04:56:37;;;;;;;11.95;2.05;;;12.60;99.90;;;;;;5078756;28;20268;-68
2021/08/17 04:59:03;;;;;;;10.27;2.10;;;12.60;99.90;;;;;;5082598;28;20043;-68
2021/08/17 05:01:32;;;;;;;13.27;2.38;;;12.60;99.90;;;;;;5071096;28;20051;-68
2021/08/17 05:03:59;;;;;;;11.65;2.85;;;12.70;99.90;;;;;;5083414;28;20053;-68
2021/08/17 05:06:25;;;;;;;9.50;2.28;;;12.70;99.90;;;;;;5072629;28;20070;-68
2021/08/17 05:08:51;;;;;;;14.40;3.10;;;12.80;99.90;;;;;;5082495;28;20044;-67
2021/08/17 05:11:17;;;;;;;10.50;2.08;;;12.80;99.90;;;;;;5069327;28;20059;-66
2021/08/17 05:13:42;;;;;;;10.43;2.20;;;12.90;99.90;;;;;;5085667;28;20521;-66
2021/08/17 05:16:10;;;;;;;11.30;2.58;;;12.90;99.90;;;;;;5078237;28;20102;-66
2021/08/17 05:18:36;;;;;;;11.20;2.88;;;12.90;99.90;;;;;;5057169;28;20048;-67
2021/08/17 05:21:02;;;;;;;12.82;2.58;;;13.00;99.90;;;;;;5074994;28;20049;-66
2021/08/17 05:23:29;;;;;;;11.55;2.55;;;13.10;99.90;;;;;;5064928;28;20115;-66
2021/08/17 05:25:55;;;;;;;7.97;2.15;;;13.20;99.90;;;;;;5070227;28;20069;-69
2021/08/17 05:28:22;;;;;;;11.63;2.92;;;13.30;99.90;;;;;;5073095;28;20113;-68
2021/08/17 05:30:49;;;;;;;13.13;2.42;;;13.30;99.90;;;;;;5066327;28;20105;-68
2021/08/17 05:33:15;;;;;;;10.35;2.55;;;13.30;99.90;;;;;;5073632;28;20498;-68
2021/08/17 05:35:42;;;;;;;12.48;2.60;;;13.40;99.90;;;;;;5067514;28;20044;-67
2021/08/17 05:38:09;;;;;;;9.55;2.67;;;13.40;99.90;;;;;;5058787;28;20076;-69
2021/08/17 05:40:35;;;;;;;13.43;3.00;;;13.40;99.90;;;;;;5072961;28;20045;-67
2021/08/17 05:43:03;;;;;;;10.10;2.75;;;13.50;99.90;;;;;;5092731;27;20102;-69
2021/08/17 05:45:29;;;;;;;11.63;3.10;;;13.50;99.90;;;;;;5102260;28;20094;-69
2021/08/17 05:47:55;;;;;;;8.80;3.22;;;13.50;99.90;;;;;;5098154;28;20055;-69
2021/08/17 05:50:21;;;;;;;11.32;2.60;;;13.60;99.90;;;;;;5098911;28;20070;-69
2021/08/17 05:52:47;;;;;;;9.43;2.65;;;13.60;99.90;;;;;;5094619;28;20059;-68
2021/08/17 05:55:13;;;;;;;10.77;2.20;;;13.70;99.90;;;;;;5102451;28;20514;-66
2021/08/17 05:57:40;;;;;;;11.93;2.78;;;13.70;99.90;;;;;;5090658;28;20058;-67
2021/08/17 06:00:12;;;;;;;8.23;3.13;;;13.80;99.90;;;;;;5093604;28;20044;-66
2021/08/17 06:02:39;;;;;;;11.88;3.38;;;13.80;99.90;;;;;;5091065;28;20066;-66
2021/08/17 06:05:05;;;;;;;11.25;3.38;;;13.90;99.90;;;;;;5101317;28;20113;-67
2021/08/17 06:07:31;;;;;;;17.75;3.45;;;13.90;99.90;;;;;;5086652;28;20108;-66
2021/08/17 06:09:57;;;;;;;13.85;3.83;;;14.00;99.90;;;;;;5094500;28;20489;-66
2021/08/17 06:12:23;;;;;;;12.55;3.65;;;14.00;99.90;;;;;;5077219;28;20434;-66
2021/08/17 06:14:49;;;;;;;12.93;3.05;;;14.00;99.90;;;;;;5082897;28;20044;-66
2021/08/17 06:17:14;;;;;;;11.90;3.30;;;14.00;99.90;;;;;;5078792;28;20052;-66
2021/08/17 06:19:41;;;;;;;12.88;3.42;;;14.00;99.90;;;;;;5093276;28;20259;-66
2021/08/17 06:22:06;;;;;;;14.98;3.80;;;14.10;99.90;;;;;;5086051;28;20079;-66
2021/08/17 06:24:33;;;;;;;14.77;4.47;;;14.20;99.90;;;;;;5085929;28;20511;-66
2021/08/17 06:26:59;;;;;;;15.88;3.22;;;14.20;99.90;;;;;;5070411;28;20051;-66
2021/08/17 06:29:25;;;;;;;12.57;3.08;;;14.30;99.90;;;;;;5087774;28;20048;-66
2021/08/17 06:31:51;;;;;;;12.48;3.63;;;14.40;99.90;;;;;;5068101;28;20060;-66
2021/08/17 06:34:16;;;;;;;11.77;4.13;;;14.40;99.90;;;;;;5079009;28;20079;-66
2021/08/17 06:36:42;;;;;;;13.07;3.65;;;14.50;99.90;;;;;;5071457;28;20051;-66
2021/08/17 06:39:08;;;;;;;8.45;3.65;;;14.60;99.90;;;;;;5082746;28;20116;-66
2021/08/17 06:41:35;;;;;;;10.55;3.38;;;14.70;99.90;;;;;;5070011;28;20139;-67
2021/08/17 06:44:01;;;;;;;10.55;3.50;;;14.80;99.90;;;;;;5111817;28;20040;-66
2021/08/17 06:46:27;;;;;;;9.20;3.55;;;14.90;99.90;;;;;;5097981;28;20123;-66
2021/08/17 06:48:54;;;;;;;11.70;2.95;;;15.00;99.90;;;;;;5104359;28;20075;-66
2021/08/17 06:51:20;;;;;;;8.90;3.47;;;15.00;99.90;;;;;;5081955;28;20111;-66
2021/08/17 06:53:46;;;;;;;8.88;3.20;;;15.00;99.90;;;;;;5101609;28;20080;-66
2021/08/17 06:56:12;;;;;;;12.65;3.65;;;15.00;99.90;;;;;;5079680;28;20079;-66
2021/08/17 06:58:39;;;;;;;7.78;3.47;;;14.90;99.90;;;;;;5101222;28;20400;-66
2021/08/17 07:01:05;;;;;;;8.90;3.08;;;14.90;99.90;;;;;;5079470;28;20087;-66
2021/08/17 07:03:31;;;;;;;7.38;4.00;;;14.90;99.90;;;;;;5094296;28;20044;-66
2021/08/17 07:05:57;;;;;;;8.10;3.08;;;15.00;99.90;;;;;;5063060;28;20052;-66
2021/08/17 07:08:23;;;;;;;10.63;3.70;;;15.00;99.90;;;;;;5078735;28;20052;-66
2021/08/17 07:10:49;;;;;;;10.55;3.60;;;15.10;99.90;;;;;;5071823;28;20067;-66
2021/08/17 07:13:15;;;;;;;12.23;3.53;;;15.10;99.90;;;;;;5077488;28;20352;-67
2021/08/17 07:15:41;;;;;;;9.15;3.80;;;15.20;99.90;;;;;;5066526;28;20041;-66
2021/08/17 07:18:08;;;;;;;11.05;3.30;;;15.30;99.90;;;;;;5092728;28;20101;-66
2021/08/17 07:20:35;;;;;;;8.95;3.50;;;15.40;99.90;;;;;;5101279;28;20073;-66
2021/08/17 07:23:00;;;;;;;6.82;3.63;;;15.40;99.90;;;;;;5083468;28;20052;-66
2021/08/17 07:25:27;;;;;;;8.90;3.67;;;15.50;99.90;;;;;;5097921;28;20111;-66
2021/08/17 07:27:54;;;;;;;9.00;3.65;;;15.60;99.90;;;;;;5087110;28;20079;-66
2021/08/17 07:30:20;;;;;;;9.88;3.70;;;15.70;99.90;;;;;;5075902;28;20049;-66
2021/08/17 07:32:46;;;;;;;14.77;4.15;;;15.70;99.90;;;;;;5064186;28;20074;-66
2021/08/17 07:35:16;;;;;;;14.00;4.43;;;15.70;99.90;;;;;;5081066;28;20048;-66
2021/08/17 07:37:42;;;;;;;6.80;3.60;;;15.80;99.90;;;;;;5067673;28;20066;-66
2021/08/17 07:40:09;;;;;;;8.35;3.88;;;15.80;99.90;;;;;;5062224;28;20151;-66
2021/08/17 07:42:36;;;;;;;11.40;3.88;;;15.90;99.90;;;;;;5081425;28;20069;-66
2021/08/17 07:45:03;;;;;;;10.20;3.78;;;15.90;99.90;;;;;;5077956;28;20053;-66
2021/08/17 07:47:29;;;;;;;11.13;3.70;;;16.00;99.90;;;;;;5060853;28;20095;-66
2021/08/17 07:49:55;;;;;;;9.50;3.45;;;16.10;99.90;;;;;;5083770;28;20036;-66
2021/08/17 07:52:21;;;;;;;12.13;4.25;;;16.10;99.90;;;;;;5081769;28;20101;-66
2021/08/17 07:54:47;;;;;;;14.07;3.70;;;16.10;99.90;;;;;;5077397;28;20383;-66
2021/08/17 07:57:13;;;;;;;10.30;4.07;;;16.20;99.90;;;;;;5074445;28;20084;-66
2021/08/17 07:59:39;;;;;;;11.98;3.92;;;16.30;99.90;;;;;;5088984;28;20056;-66
2021/08/17 08:02:05;;;;;;;12.27;4.45;;;16.30;99.90;;;;;;5073802;28;20071;-66
2021/08/17 08:04:31;;;;;;;12.50;4.28;;;16.40;99.90;;;;;;5092020;28;20058;-66
2021/08/17 08:06:57;;;;;;;16.50;4.43;;;16.50;99.90;;;;;;5071078;28;20052;-66
2021/08/17 08:09:22;;;;;;;14.15;4.18;;;16.50;99.90;;;;;;5097637;28;20049;-66
2021/08/17 08:11:48;;;;;;;13.20;4.68;;;16.60;99.90;;;;;;5068753;28;20099;-66
2021/08/17 08:14:14;;;;;;;10.27;4.20;;;16.60;99.90;;;;;;5078525;28;20048;-66
2021/08/17 08:16:40;;;;;;;9.07;4.50;;;16.60;99.90;;;;;;5076324;28;20041;-66
2021/08/17 08:19:06;;;;;;;14.98;4.25;;;16.60;99.90;;;;;;5084074;28;20050;-66
2021/08/17 08:21:33;;;;;;;11.63;4.32;;;16.60;99.90;;;;;;5103586;28;20041;-66
2021/08/17 08:24:02;;;;;;;11.60;4.20;;;16.50;99.90;;;;;;5091404;28;20546;-65
2021/08/17 08:26:28;;;;;;;11.48;4.28;;;16.50;99.90;;;;;;5077028;28;20078;-66
2021/08/17 08:28:54;;;;;;;10.55;5.45;;;16.50;99.90;;;;;;5080654;28;20626;-66
2021/08/17 08:31:21;;;;;;;9.68;5.15;;;16.50;99.90;;;;;;5071437;28;20533;-66
2021/08/17 08:33:48;;;;;;;13.65;6.05;;;16.30;99.90;;;;;;5086738;28;20043;-66
2021/08/17 08:36:14;;;;;;;12.18;5.05;;;16.40;99.90;;;;;;5067523;28;20108;-66
2021/08/17 08:38:40;;;;;;;10.85;4.95;;;16.40;99.90;;;;;;5084575;28;20067;-67
2021/08/17 08:41:05;;;;;;;14.85;5.85;;;16.30;99.90;;;;;;5082803;28;20098;-66
2021/08/17 08:43:31;;;;;;;15.82;6.03;;;16.30;99.90;;;;;;5093958;28;20259;-66
2021/08/17 08:45:57;;;;;;;14.65;6.15;;;16.40;99.90;;;;;;5087362;28;20060;-66
2021/08/17 08:48:23;;;;;;;12.05;5.28;;;16.40;99.90;;;;;;5090689;28;20056;-66
2021/08/17 08:50:50;;;;;;;10.45;5.40;;;16.40;99.90;;;;;;5088695;28;20054;-67
2021/08/17 08:53:19;;;;;;;13.60;6.05;;;16.50;99.90;;;;;;5087341;28;20044;-66
2021/08/17 08:55:45;;;;;;;12.32;6.50;;;16.60;99.90;;;;;;5088490;28;20059;-66
2021/08/17 08:58:12;;;;;;;13.60;6.25;;;16.70;99.90;;;;;;5084380;28;20048;-66
2021/08/17 09:00:37;;;;;;;14.85;5.90;;;16.90;99.90;;;;;;5092176;28;20036;-66
2021/08/17 09:03:03;;;;;;;17.20;7.03;;;17.00;99.90;;;;;;5083069;28;20148;-66
2021/08/17 09:05:29;;;;;;;17.50;7.20;;;17.10;99.90;;;;;;5093140;28;20054;-66
2021/08/17 09:07:56;;;;;;;13.95;7.20;;;17.10;99.90;;;;;;5079879;28;20130;-66
2021/08/17 09:10:26;;;;;;;14.25;7.00;;;17.20;99.90;;;;;;5077398;28;20044;-66
2021/08/17 09:12:52;;;;;;;;;;;17.20;99.90;;;;;;5062925;28;20115;-66
2021/08/17 09:15:33;;;;;;;16.20;7.85;;;17.20;99.90;;;;;;5085865;28;19966;-66
2021/08/17 09:18:08;;;;;;;19.73;7.50;;;17.30;99.90;;;;;;5082778;28;20079;-66
2021/08/17 09:20:43;;;;;;;16.60;7.75;;;17.40;99.90;;;;;;5086261;28;20064;-66
2021/08/17 09:23:27;;;;;;;15.13;7.95;;;17.50;99.90;;;;;;5062841;28;20668;-66
2021/08/17 09:25:55;;;;;;;15.85;7.68;;;17.50;99.90;;;;;;5068023;28;20044;-66
2021/08/17 09:28:29;;;;;;;14.20;6.68;;;17.50;99.90;;;;;;5079455;28;20056;-66
2021/08/17 09:30:56;;;;;;;13.32;7.25;;;17.60;99.90;;;;;;5061032;28;20048;-66
2021/08/17 09:33:22;;;;;;;12.73;7.43;;;17.60;99.90;;;;;;5067619;28;20123;-66
2021/08/17 09:35:55;;;;;;;15.57;8.32;;;17.60;99.90;;;;;;5076172;28;20068;-66
2021/08/17 09:38:21;;;;;;;15.68;8.43;;;17.60;99.90;;;;;;5064334;28;20083;-66
2021/08/17 09:40:46;;;;;;;14.50;7.82;;;17.70;99.90;;;;;;5069229;28;20045;-66
2021/08/17 09:43:17;;;;;;;13.75;7.53;;;17.70;99.90;;;;;;5076122;28;20053;-66
2021/08/17 09:45:48;;;;;;;15.00;7.75;;;17.60;99.90;;;;;;5072056;28;20053;-66
2021/08/17 09:48:26;;;;;;;14.50;7.57;;;17.60;99.90;;;;;;5069415;28;20048;-66
2021/08/17 09:50:52;;;;;;;15.65;9.07;;;17.70;99.90;;;;;;5084436;28;20075;-66
2021/08/17 09:53:21;;;;;;;15.95;8.52;;;17.90;99.90;;;;;;5064341;28;20785;-66
2021/08/17 09:55:55;;;;;;;16.02;8.25;;;17.90;99.90;;;;;;5077284;28;20037;-66
2021/08/17 09:58:26;;;;;;;16.33;8.80;;;17.90;99.90;;;;;;5082844;28;20048;-65
2021/08/17 10:00:58;;;;;;;14.27;7.90;;;17.70;99.90;;;;;;5084952;28;20041;-65
2021/08/17 10:03:25;;;;;;;18.08;8.55;;;17.70;99.90;;;;;;5072761;28;20420;-68
2021/08/17 10:05:51;;;;;;;14.57;8.15;;;17.60;99.90;;;;;;5078859;28;20508;-66
2021/08/17 10:08:19;;;;;;;17.60;8.35;;;17.60;99.90;;;;;;5075718;28;20366;-65
2021/08/17 10:10:46;;;;;;;14.38;8.27;;;17.70;99.90;;;;;;5084101;28;20047;-66
2021/08/17 10:13:15;;;;;;;16.00;8.93;;;17.80;99.90;;;;;;5078468;28;20048;-66
2021/08/17 10:15:43;;;;;;;18.92;8.80;;;17.90;99.90;;;;;;5086197;28;20040;-66
2021/08/17 10:18:10;;;;;;;20.35;9.40;;;18.00;99.90;;;;;;5077181;28;20086;-66
2021/08/17 10:20:43;;;;;;;22.60;9.88;;;18.20;99.90;;;;;;5085247;28;20071;-65
2021/08/17 10:23:13;;;;;;;17.23;9.48;;;18.30;99.90;;;;;;5074213;28;20039;-65
2021/08/17 10:25:54;;;;;;;17.23;9.00;;;18.30;99.90;;;;;;5086821;28;20063;-66
2021/08/17 10:28:37;;;;;;;15.07;9.88;;;18.30;99.90;;;;;;5075200;28;20514;-66
2021/08/17 10:31:12;;;;;;;17.20;9.95;;;18.30;99.90;;;;;;5074871;28;20052;-66
2021/08/17 10:33:55;;;;;;;21.20;9.25;;;18.20;99.90;;;;;;5069496;28;20202;-66
2021/08/17 10:36:31;;;;;;;19.25;9.48;;;18.30;99.90;;;;;;5080544;28;20074;-65
2021/08/17 10:38:58;;;;;;;18.25;9.18;;;18.30;99.90;;;;;;5071340;28;20085;-66
2021/08/17 10:41:36;;;;;;;18.65;10.60;;;18.20;99.90;;;;;;5080247;28;20052;-65
2021/08/17 10:44:06;;;;;;;17.25;9.90;;;18.10;99.90;;;;;;5084341;28;20272;-75
2021/08/17 10:46:54;;;;;;;17.35;9.88;;;18.20;99.90;;;;;;5081522;28;20055;-66
2021/08/17 10:49:27;;;;;;;17.38;9.57;;;18.40;99.90;;;;;;5085242;28;20126;-66
2021/08/17 10:51:59;;;;;;;17.40;10.18;;;18.40;99.90;;;;;;5074872;28;20067;-66
2021/08/17 10:54:26;;;;;;;18.92;9.75;;;18.40;99.90;;;;;;5089723;28;20066;-66
2021/08/17 10:56:52;;;;;;;18.40;10.57;;;18.20;99.90;;;;;;5063753;28;20045;-66
2021/08/17 10:59:37;;;;;;;18.63;10.85;;;18.00;99.90;;;;;;5075673;28;20052;-65
2021/08/17 11:02:03;;;;;;;16.60;10.02;;;17.90;99.90;;;;;;5067178;28;20055;-65
2021/08/17 11:04:43;;;;;;;17.33;9.88;;;17.80;99.90;;;;;;5091228;28;20075;-65
2021/08/17 11:07:24;;;;;;;15.30;8.88;;;17.80;99.90;;;;;;5057177;28;20059;-65
2021/08/17 11:09:50;;;;;;;13.93;8.50;;;17.80;99.90;;;;;;5088581;28;20112;-66
2021/08/17 11:12:17;;;;;;;14.32;8.82;;;17.90;99.90;;;;;;5054801;28;20055;-66
2021/08/17 11:14:45;;;;;;;12.98;7.78;;;18.00;99.90;;;;;;5093695;28;20168;-65
2021/08/17 11:17:19;;;;;;;13.27;8.05;;;18.10;99.90;;;;;;5075167;28;20044;-65
2021/08/17 11:19:48;;;;;;;14.30;8.18;;;18.20;99.90;;;;;;5088639;28;20067;-66
2021/08/17 11:22:19;;;;;;;14.90;7.87;;;18.30;99.90;;;;;;5072224;28;20043;-66
2021/08/17 11:25:07;;;;;;;12.82;7.72;;;18.30;99.90;;;;;;5097938;28;20416;-66
2021/08/17 11:27:38;;;;;;;10.57;6.68;;;18.40;99.90;;;;;;5081304;28;20108;-66
2021/08/17 11:30:08;;;;;;;13.00;7.63;;;18.50;99.90;;;;;;5067660;28;20090;-66
2021/08/17 11:32:43;;;;;;;11.55;7.72;;;18.80;99.90;;;;;;5079058;28;20040;-66
2021/08/17 11:35:15;;;;;;;12.93;7.35;;;19.00;99.90;;;;;;5068290;28;20097;-66
2021/08/17 11:37:45;;;;;;;15.27;7.70;;;19.20;99.90;;;;;;5078234;28;20040;-67
2021/08/17 11:40:13;;;;;;;11.37;7.30;;;19.10;99.90;;;;;;5075984;28;20040;-66
2021/08/17 11:42:42;;;;;;;10.97;7.20;;;18.90;99.90;;;;;;5097295;28;20709;-66
2021/08/17 11:45:11;;;;;;;14.32;7.45;;;18.60;99.90;;;;;;5122132;27;20355;-66
2021/08/17 11:47:38;;;;;;;11.35;6.53;;;18.40;99.90;;;;;;5102398;28;20079;-66
2021/08/17 11:50:07;;;;;;;12.48;7.22;;;18.20;99.90;;;;;;5113996;27;20054;-66
2021/08/17 11:52:38;;;;;;;12.48;7.30;;;18.00;99.90;;;;;;5092806;28;20108;-66
2021/08/17 11:55:16;;;;;;;13.48;7.50;;;17.70;99.90;;;;;;5105390;27;20073;-66
2021/08/17 11:57:45;;;;;;;12.75;8.23;;;17.70;99.90;;;;;;5093052;28;20044;-66
2021/08/17 12:00:11;;;;;;;13.52;7.75;;;17.50;99.90;;;;;;5067053;28;20083;-66
2021/08/17 12:02:39;;;;;;;11.25;6.90;;;17.60;99.90;;;;;;5077619;28;20045;-65
2021/08/17 12:05:08;;;;;;;15.10;6.78;;;17.60;99.90;;;;;;5087099;28;20051;-66
2021/08/17 12:07:34;;;;;;;10.93;6.47;;;17.90;99.90;;;;;;5079766;28;20504;-66
2021/08/17 12:10:13;;;;;;;11.68;6.70;;;18.10;99.90;;;;;;5081194;28;20044;-66
2021/08/17 12:13:03;;;;;;;10.40;6.72;;;18.40;99.90;;;;;;5068792;28;20051;-66
2021/08/17 12:15:31;;;;;;;11.27;7.28;;;18.90;99.90;;;;;;5058291;28;20519;-66
2021/08/17 12:18:07;;;;;;;12.80;6.90;;;18.90;99.90;;;;;;5061595;28;20099;-67
2021/08/17 12:20:35;;;;;;;11.50;5.70;;;18.80;99.90;;;;;;5090339;28;20807;-66
2021/08/17 12:23:14;;;;;;;11.18;6.15;;;18.60;99.90;;;;;;5051083;28;20055;-66
2021/08/17 12:25:40;;;;;;;9.75;6.13;;;18.60;99.90;;;;;;5099865;28;20044;-66
2021/08/17 12:28:06;;;;;;;8.23;5.00;;;18.50;99.90;;;;;;5051231;28;20041;-66
2021/08/17 12:30:33;;;;;;;9.75;5.90;;;18.60;99.90;;;;;;5090144;28;20060;-66
2021/08/17 12:33:01;;;;;;;9.93;5.97;;;18.50;99.90;;;;;;5064828;28;20075;-66
2021/08/17 12:35:28;;;;;;;13.30;5.93;;;18.60;99.90;;;;;;5091806;28;20072;-66
2021/08/17 12:37:55;;;;;;;11.05;5.95;;;18.50;99.90;;;;;;5057237;28;20048;-66
2021/08/17 12:40:21;;;;;;;9.02;5.28;;;18.50;99.90;;;;;;5082848;28;20052;-66